Flight Track Log - Related Links

Times and Time Zones

All times are in EDT time to prevent confusion due to time zone crossing. See the UAL5862 flight status page for this flight to view local times or setup timezone preferences in your user account.

Time Position Orientation Groundspeed Altitude Reporting Facility
EDT Latitude Longitude Course Direction KTS MPH feet Rate Location/Type
Sun 10:32:13 PM 41.9833 -87.8500 66° East 163 188 2,700  Level Chicago TRACON
Sun 10:33:07 PM 42.0167 -87.8000 48° Northeast 220 253 4,500 2,381 Climbing Chicago TRACON
Sun 10:34:19 PM 42.0500 -87.7000 66° East 262 302 7,700 2,567 Climbing Chicago TRACON
Sun 10:35:00 PM 42.1088 -87.5094 59° Northeast  Level FlightAware Approximate
Sun 10:36:00 PM 42.1512 -87.4130 66° East  Level FlightAware Approximate
Sun 10:36:14 PM 42.1128 -87.5281 64° Northeast 270 311 12,500  Level Chicago Center
Sun 10:37:00 PM 42.1854 -87.3107 66° East  Level FlightAware Approximate
Sun 10:37:15 PM 42.1469 -87.4342 64° Northeast 279 321 13,900  Level Chicago Center
Sun 10:38:16 PM 42.1878 -87.3197 64° Northeast 333 383 14,600 738 Climbing Chicago Center
Sun 10:39:17 PM 42.2314 -87.1978 64° Northeast 359 413 15,400 836 Climbing Chicago Center
Sun 10:40:18 PM 42.2756 -87.0686 65° Northeast 376 433 16,300 1,024 Climbing Chicago Center
Sun 10:41:20 PM 42.2858 -86.8969 85° East 381 438 17,500 1,073 Climbing Chicago Center
Sun 10:42:21 PM 42.2903 -86.7531 88° East 385 443 18,500 738 Climbing Chicago Center
Sun 10:43:22 PM 42.2975 -86.6111 86° East 392 451 19,000 246 Climbing Chicago Center
Sun 10:44:23 PM 42.3153 -86.4742 80° East 408 470 19,000  Level Chicago Center
Sun 10:45:24 PM 42.3511 -86.3297 71° East 406 467 19,000  Level Chicago Center
Sun 10:46:26 PM 42.3861 -86.1869 72° East 404 465 19,000 -443 Level Chicago Center
Sun 10:47:26 PM 42.4219 -86.0478 71° East 398 458 18,100 -992 Descending Chicago Center
Sun 10:48:27 PM 42.4644 -85.8769 71° East 402 463 17,000 -1,230 Descending Chicago Center
Sun 10:49:28 PM 42.4994 -85.7389 71° East 394 453 15,600 -1,377 Descending Chicago Center
Sun 10:50:29 PM 42.5331 -85.6036 71° East 386 444 14,200 -1,377 Descending Chicago Center
Sun 10:51:30 PM 42.5656 -85.4708 72° East 379 436 12,800 -1,426 Descending Chicago Center
Sun 10:52:31 PM 42.5964 -85.3433 72° East 368 423 11,300 -1,475 Descending Chicago Center
Sun 10:53:32 PM 42.6239 -85.2344 71° East 327 376 9,800 -1,525 Descending Chicago Center
Sun 10:54:33 PM 42.6469 -85.1375 72° East 284 327 8,200 -1,770 Descending Chicago Center
Sun 10:55:34 PM 42.6686 -85.0458 72° East 263 303 6,200 -1,967 Descending Chicago Center
Sun 10:56:35 PM 42.6919 -84.9528 71° East 261 300 4,200 -1,574 Descending Chicago Center
Sun 10:57:36 PM 42.7167 -84.8453 73° East 253 291 3,000 -639 Descending Chicago Center
Sun 10:58:37 PM 42.7386 -84.7664 69° East 235 270 2,900 -393 Descending Chicago Center
Sun 10:59:38 PM 42.7756 -84.7167 45° Northeast 206 237 2,200 -393 Descending Chicago Center
Sun 11:00:39 PM 42.7861 -84.6731 72° East 177 204 2,100 -98 Descending Chicago Center

Login

Don't have an account? Register now (free) for customized features, flight alerts, and more!